createdAt,value
2019-01-17T00:01:42.831Z,61.81
2019-01-17T00:04:38.281Z,61.83
2019-01-17T00:07:31.629Z,61.99
2019-01-17T00:10:34.368Z,62.48
2019-01-17T00:13:20.590Z,62.63
2019-01-17T00:15:52.922Z,62.47
2019-01-17T00:18:41.980Z,62.09
2019-01-17T00:21:56.904Z,62.10
2019-01-17T00:24:45.686Z,62.23
2019-01-17T00:27:33.257Z,62.14
2019-01-17T00:30:26.557Z,62.14
2019-01-17T00:33:12.702Z,61.97
2019-01-17T00:35:52.795Z,61.97
2019-01-17T00:38:42.567Z,61.89
2019-01-17T00:41:32.729Z,61.66
2019-01-17T00:44:21.273Z,61.50
2019-01-17T00:47:02.483Z,61.72
2019-01-17T00:49:50.928Z,61.72
2019-01-17T00:52:44.070Z,61.93
2019-01-17T00:55:30.025Z,61.95
2019-01-17T00:58:18.274Z,63.37
2019-01-17T01:01:04.603Z,62.84
2019-01-17T01:03:50.488Z,62.84
2019-01-17T01:06:55.760Z,61.97
2019-01-17T01:09:41.870Z,61.71
2019-01-17T01:12:24.422Z,61.04
2019-01-17T01:15:22.574Z,61.04
2019-01-17T01:18:17.273Z,60.90
2019-01-17T01:21:03.245Z,60.69
2019-01-17T01:23:49.390Z,60.77
2019-01-17T01:26:42.558Z,61.52
2019-01-17T01:29:35.634Z,61.75
2019-01-17T01:32:17.457Z,61.48
2019-01-17T01:35:08.091Z,61.42
2019-01-17T01:38:09.045Z,61.72
2019-01-17T01:41:05.557Z,61.72
2019-01-17T01:44:03.377Z,61.35
2019-01-17T01:46:49.497Z,61.35
2019-01-17T01:49:37.333Z,61.15
2019-01-17T01:52:28.148Z,61.10
2019-01-17T01:54:56.275Z,61.10
2019-01-17T01:57:27.419Z,61.21
2019-01-17T01:59:55.437Z,60.97
2019-01-17T02:02:24.783Z,60.70
2019-01-17T02:04:57.169Z,60.65
2019-01-17T02:07:25.202Z,60.63
2019-01-17T02:09:53.342Z,60.17
2019-01-17T02:12:26.752Z,60.20
2019-01-17T02:14:54.983Z,60.20
2019-01-17T02:17:23.417Z,60.24
2019-01-17T02:19:51.494Z,60.15
2019-01-17T02:22:19.744Z,60.28
2019-01-17T02:24:48.128Z,60.65
2019-01-17T02:27:16.404Z,60.65
2019-01-17T02:29:44.811Z,60.10
2019-01-17T02:32:13.929Z,60.10
2019-01-17T02:34:42.220Z,60.19
2019-01-17T02:37:13.150Z,60.17
2019-01-17T02:39:41.656Z,60.15
2019-01-17T02:42:09.785Z,60.17
2019-01-17T02:44:39.217Z,60.17
2019-01-17T02:47:10.493Z,60.59
2019-01-17T02:49:38.434Z,61.85
2019-01-17T02:52:06.563Z,61.85
2019-01-17T02:54:35.855Z,61.84
2019-01-17T02:57:04.315Z,62.27
2019-01-17T02:59:33.617Z,62.59
2019-01-17T03:02:02.476Z,62.59
2019-01-17T03:04:33.729Z,63.71
2019-01-17T03:07:01.892Z,63.71
2019-01-17T03:09:30.196Z,64.08
2019-01-17T03:11:58.287Z,64.00
2019-01-17T03:14:27.315Z,64.26
2019-01-17T03:16:55.592Z,64.15
2019-01-17T03:19:26.647Z,64.04
2019-01-17T03:21:54.701Z,64.04
2019-01-17T03:24:23.130Z,63.87
2019-01-17T03:26:51.181Z,63.77
2019-01-17T03:29:20.252Z,63.77
2019-01-17T03:31:52.230Z,64.60
2019-01-17T03:34:20.201Z,64.56
2019-01-17T03:36:48.545Z,65.04
2019-01-17T03:39:19.574Z,65.12
2019-01-17T03:41:47.665Z,65.36
2019-01-17T03:44:16.038Z,65.36
2019-01-17T03:46:44.271Z,65.32
2019-01-17T03:49:12.650Z,65.32
2019-01-17T03:51:41.450Z,65.42
2019-01-17T03:54:09.440Z,64.86
2019-01-17T03:56:39.012Z,66.14
2019-01-17T03:59:07.073Z,66.14
2019-01-17T04:01:36.502Z,65.88
2019-01-17T04:04:06.664Z,66.87
2019-01-17T04:06:37.597Z,66.87
2019-01-17T04:09:07.976Z,66.21
2019-01-17T04:11:37.431Z,66.21
2019-01-17T04:14:05.746Z,66.48
2019-01-17T04:16:33.854Z,66.73
2019-01-17T04:19:03.325Z,66.73
2019-01-17T04:21:31.652Z,66.49
2019-01-17T04:24:00.763Z,67.14
2019-01-17T04:26:30.283Z,67.14
2019-01-17T04:28:59.390Z,66.08
2019-01-17T04:31:27.483Z,66.58
2019-01-17T04:33:56.941Z,66.58
2019-01-17T04:36:25.223Z,67.04
2019-01-17T04:38:53.350Z,66.76
2019-01-17T04:41:22.461Z,66.87
2019-01-17T04:43:53.724Z,66.24
2019-01-17T04:46:25.141Z,65.78
2019-01-17T04:48:55.995Z,65.42
2019-01-17T04:51:25.126Z,65.27
2019-01-17T04:53:53.410Z,66.02
2019-01-17T04:56:21.531Z,65.87
2019-01-17T04:58:52.590Z,65.69
2019-01-17T05:01:21.112Z,66.03
2019-01-17T05:03:49.355Z,66.52
2019-01-17T05:06:17.741Z,66.37
2019-01-17T05:08:45.971Z,66.46
2019-01-17T05:11:17.822Z,66.62
2019-01-17T05:13:46.960Z,66.87
2019-01-17T05:16:15.790Z,67.54
2019-01-17T05:18:43.943Z,68.14
2019-01-17T05:21:12.231Z,68.14
2019-01-17T05:23:40.715Z,68.44
2019-01-17T05:26:08.781Z,68.44
2019-01-17T05:28:37.938Z,68.49
2019-01-17T05:31:06.300Z,68.53
2019-01-17T05:33:34.658Z,68.00
2019-01-17T05:36:03.705Z,68.00
2019-01-17T05:38:32.144Z,68.14
2019-01-17T05:41:01.775Z,68.14
2019-01-17T05:43:29.857Z,68.13
2019-01-17T05:45:58.659Z,68.31
2019-01-17T05:48:26.691Z,67.60
2019-01-17T05:50:55.074Z,67.60
2019-01-17T05:53:23.719Z,68.05
2019-01-17T05:55:52.430Z,67.87
2019-01-17T05:58:20.459Z,68.37
2019-01-17T06:00:50.113Z,68.56
2019-01-17T06:03:19.668Z,68.53
2019-01-17T06:05:47.747Z,69.17
2019-01-17T06:08:16.666Z,69.17
2019-01-17T06:10:44.903Z,69.77
2019-01-17T06:13:13.677Z,69.68
2019-01-17T06:15:43.493Z,70.31
2019-01-17T06:18:11.991Z,70.31
2019-01-17T06:20:40.490Z,70.02
2019-01-17T06:23:08.643Z,69.06
2019-01-17T06:25:37.098Z,70.04
2019-01-17T06:28:05.999Z,70.04
2019-01-17T06:30:34.063Z,70.59
2019-01-17T06:33:07.941Z,70.74
2019-01-17T06:35:36.037Z,71.57
2019-01-17T06:38:05.391Z,71.63
2019-01-17T06:40:34.884Z,71.79
2019-01-17T06:43:07.944Z,72.15
2019-01-17T06:45:37.411Z,72.08
2019-01-17T06:48:06.781Z,72.32
2019-01-17T06:50:36.346Z,72.56
2019-01-17T06:53:07.106Z,72.56
2019-01-17T06:55:36.418Z,72.79
2019-01-17T06:58:04.574Z,72.79
2019-01-17T07:00:33.039Z,73.66
2019-01-17T07:03:05.137Z,73.91
2019-01-17T07:05:34.300Z,74.44
2019-01-17T07:08:05.181Z,74.44
2019-01-17T07:10:39.028Z,74.85
2019-01-17T07:13:07.275Z,74.97
2019-01-17T07:15:36.889Z,75.07
2019-01-17T07:18:09.664Z,75.07
2019-01-17T07:20:39.855Z,75.19
2019-01-17T07:23:13.208Z,74.82
2019-01-17T07:25:41.609Z,74.53
2019-01-17T07:28:14.314Z,75.54
2019-01-17T07:30:42.811Z,75.54
2019-01-17T07:33:12.318Z,74.66
2019-01-17T07:35:40.330Z,74.56
2019-01-17T07:38:08.751Z,74.56
2019-01-17T07:40:37.881Z,74.63
2019-01-17T07:43:09.984Z,74.09
2019-01-17T07:45:38.914Z,73.89
2019-01-17T07:48:07.057Z,74.02
2019-01-17T07:50:35.591Z,73.86
2019-01-17T07:53:03.838Z,73.81
2019-01-17T07:55:32.369Z,73.35
2019-01-17T07:58:11.433Z,72.76
2019-01-17T08:00:40.610Z,72.76
2019-01-17T08:03:09.106Z,72.77
2019-01-17T08:05:38.854Z,72.77
2019-01-17T08:08:16.746Z,72.29
2019-01-17T08:10:45.199Z,71.96
2019-01-17T08:13:14.453Z,72.41
2019-01-17T08:15:42.642Z,71.96
2019-01-17T08:18:11.007Z,71.93
2019-01-17T08:20:39.108Z,71.73
2019-01-17T08:23:07.248Z,71.73
2019-01-17T08:25:36.939Z,71.46
2019-01-17T08:28:05.389Z,71.46
2019-01-17T08:30:35.306Z,71.62
2019-01-17T08:33:05.692Z,71.55
2019-01-17T08:35:34.823Z,71.55
2019-01-17T08:38:03.213Z,71.56
2019-01-17T08:40:32.836Z,71.69
2019-01-17T08:43:04.367Z,71.53
2019-01-17T08:45:32.780Z,71.42
2019-01-17T08:48:01.409Z,71.55
2019-01-17T08:50:29.570Z,71.33
2019-01-17T08:53:02.329Z,71.01
2019-01-17T08:55:33.948Z,71.18
2019-01-17T08:58:04.387Z,71.80
2019-01-17T09:00:32.847Z,70.98
2019-01-17T09:03:01.709Z,70.98
2019-01-17T09:05:30.933Z,72.22
2019-01-17T09:07:59.012Z,71.80
2019-01-17T09:10:29.130Z,71.37
2019-01-17T09:12:57.372Z,70.71
2019-01-17T09:15:28.266Z,70.50
2019-01-17T09:18:00.563Z,70.48
2019-01-17T09:20:32.609Z,70.41
2019-01-17T09:23:03.956Z,70.50
2019-01-17T09:25:33.308Z,70.37
2019-01-17T09:28:08.970Z,70.04
2019-01-17T09:30:38.712Z,69.99
2019-01-17T09:33:09.470Z,69.86
2019-01-17T09:35:37.603Z,69.56
2019-01-17T09:38:08.660Z,68.74
2019-01-17T09:40:38.903Z,68.77
2019-01-17T09:43:11.217Z,68.46
2019-01-17T09:45:39.342Z,68.30
2019-01-17T09:48:08.136Z,68.49
2019-01-17T09:50:36.903Z,68.42
2019-01-17T09:53:05.521Z,68.69
2019-01-17T09:55:35.082Z,68.35
2019-01-17T09:58:07.573Z,68.86
2019-01-17T10:00:36.158Z,68.77
2019-01-17T10:03:07.164Z,68.47
2019-01-17T10:05:35.455Z,68.33
2019-01-17T10:08:03.845Z,68.59
2019-01-17T10:10:32.502Z,68.79
2019-01-17T10:13:04.496Z,68.82
2019-01-17T10:15:55.652Z,69.42
2019-01-17T10:18:52.818Z,69.42
2019-01-17T10:22:32.766Z,69.71
2019-01-17T10:25:41.419Z,69.51
2019-01-17T10:28:50.572Z,69.30
2019-01-17T10:32:02.255Z,68.96
2019-01-17T10:35:08.416Z,68.72
2019-01-17T10:38:19.315Z,68.88
2019-01-17T10:41:09.154Z,69.39
2019-01-17T10:44:33.091Z,69.07
2019-01-17T10:47:41.150Z,68.55
2019-01-17T10:50:56.785Z,69.09
2019-01-17T10:53:46.981Z,68.93
2019-01-17T10:57:23.601Z,68.80
2019-01-17T11:00:22.367Z,68.75
2019-01-17T11:03:29.281Z,69.79
2019-01-17T11:06:20.980Z,70.60
2019-01-17T11:09:19.779Z,70.33
2019-01-17T11:12:35.992Z,70.25
2019-01-17T11:15:40.811Z,70.20
2019-01-17T11:19:07.100Z,70.12
2019-01-17T11:22:14.939Z,70.54
2019-01-17T11:25:05.045Z,70.74
2019-01-17T11:28:14.114Z,71.18
2019-01-17T11:31:17.103Z,70.94
2019-01-17T11:34:16.915Z,70.99
2019-01-17T11:37:17.687Z,70.58
2019-01-17T11:40:16.145Z,70.58
2019-01-17T11:43:21.413Z,71.13
2019-01-17T11:46:28.199Z,71.22
2019-01-17T11:49:21.925Z,71.32
2019-01-17T11:52:59.114Z,71.91
2019-01-17T11:55:55.809Z,71.60
2019-01-17T11:59:20.457Z,70.38
2019-01-17T12:02:16.090Z,69.58
2019-01-17T12:04:43.140Z,68.72
2019-01-17T12:07:16.424Z,67.86
2019-01-17T12:09:45.497Z,67.65
2019-01-17T12:12:18.431Z,67.31
2019-01-17T12:14:46.724Z,66.81
2019-01-17T12:17:15.113Z,65.80
2019-01-17T12:19:46.828Z,65.48
2019-01-17T12:22:14.962Z,65.08
2019-01-17T12:24:47.097Z,65.13
2019-01-17T12:27:15.495Z,64.45
2019-01-17T12:29:46.473Z,64.85
2019-01-17T12:32:15.917Z,64.26
2019-01-17T12:34:47.197Z,64.07
2019-01-17T12:37:21.169Z,63.85
2019-01-17T12:39:49.821Z,64.04
2019-01-17T12:42:20.012Z,63.14
2019-01-17T12:44:48.542Z,62.22
2019-01-17T12:47:19.489Z,61.14
2019-01-17T12:49:47.736Z,60.08
2019-01-17T12:52:18.115Z,59.25
2019-01-17T12:54:46.239Z,59.31
2019-01-17T12:57:15.907Z,59.28
2019-01-17T12:59:47.374Z,59.40
2019-01-17T13:02:16.028Z,60.44
2019-01-17T13:04:44.448Z,61.19
2019-01-17T13:07:12.952Z,62.29
2019-01-17T13:09:44.397Z,62.84
2019-01-17T13:12:12.562Z,63.28
2019-01-17T13:14:41.473Z,63.34
2019-01-17T13:17:10.018Z,63.26
2019-01-17T13:19:43.981Z,63.38
2019-01-17T13:22:13.206Z,63.61
2019-01-17T13:24:43.333Z,63.52
2019-01-17T13:27:33.682Z,62.63
2019-01-17T13:30:08.381Z,63.19
2019-01-17T13:32:40.954Z,63.22
2019-01-17T13:35:11.565Z,63.78
2019-01-17T13:37:48.117Z,63.51
2019-01-17T13:40:28.555Z,63.40
2019-01-17T13:42:58.766Z,64.01
2019-01-17T13:45:46.833Z,64.31
2019-01-17T13:48:16.204Z,63.86
2019-01-17T13:50:44.670Z,63.62
2019-01-17T13:53:13.582Z,63.42
2019-01-17T13:55:44.493Z,64.11
2019-01-17T13:58:13.156Z,63.63
2019-01-17T14:00:42.676Z,63.48
2019-01-17T14:03:16.348Z,63.89
2019-01-17T14:05:46.581Z,64.03
2019-01-17T14:08:16.204Z,64.29
2019-01-17T14:10:44.880Z,64.96
2019-01-17T14:13:14.307Z,65.07
2019-01-17T14:15:43.348Z,64.91
2019-01-17T14:18:12.003Z,64.46
2019-01-17T14:20:47.593Z,64.27
2019-01-17T14:23:18.248Z,64.19
2019-01-17T14:25:48.567Z,64.50
2019-01-17T14:28:20.339Z,64.38
2019-01-17T14:30:49.384Z,64.59
2019-01-17T14:33:17.898Z,64.42
2019-01-17T14:35:47.004Z,64.98
2019-01-17T14:38:16.443Z,65.35
2019-01-17T14:40:47.026Z,65.93
2019-01-17T14:43:15.785Z,66.00
2019-01-17T14:45:45.476Z,66.00
2019-01-17T14:48:14.958Z,66.10
2019-01-17T14:50:46.269Z,66.32
2019-01-17T14:53:15.704Z,66.31
2019-01-17T14:55:44.875Z,66.41
2019-01-17T14:58:18.290Z,66.85
2019-01-17T15:00:47.315Z,67.00
2019-01-17T15:03:16.931Z,67.00
2019-01-17T15:05:46.108Z,66.60
2019-01-17T15:08:20.363Z,66.42
2019-01-17T15:10:50.964Z,67.76
2019-01-17T15:13:19.306Z,67.76
2019-01-17T15:15:47.989Z,67.69
2019-01-17T15:18:16.973Z,68.20
2019-01-17T15:20:46.076Z,68.31
2019-01-17T15:23:18.885Z,68.66
2019-01-17T15:25:50.119Z,68.66
2019-01-17T15:28:20.606Z,68.38
2019-01-17T15:30:53.832Z,68.81
2019-01-17T15:33:27.359Z,69.07
2019-01-17T15:36:22.497Z,68.67
2019-01-17T15:38:53.957Z,68.38
2019-01-17T15:41:28.567Z,68.23
2019-01-17T15:43:56.246Z,67.61
2019-01-17T15:46:27.442Z,67.61
2019-01-17T15:48:55.820Z,67.81
2019-01-17T15:51:25.106Z,67.48
2019-01-17T15:53:57.099Z,68.52
2019-01-17T15:56:25.544Z,68.60
2019-01-17T15:58:57.794Z,69.06
2019-01-17T16:01:27.343Z,69.59
2019-01-17T16:03:55.716Z,69.43
2019-01-17T16:06:27.588Z,69.43
2019-01-17T16:08:57.320Z,70.07
2019-01-17T16:11:26.092Z,69.31
2019-01-17T16:14:02.198Z,69.31
2019-01-17T16:16:31.763Z,69.28
2019-01-17T16:19:00.050Z,69.28
2019-01-17T16:21:30.154Z,69.53
2019-01-17T16:24:00.719Z,76.35
2019-01-17T16:26:30.029Z,79.55
2019-01-17T16:29:00.009Z,81.81
2019-01-17T16:31:28.329Z,83.64
2019-01-17T16:33:57.429Z,84.92
2019-01-17T16:36:28.102Z,86.31
2019-01-17T16:38:58.942Z,87.34
2019-01-17T16:41:34.500Z,88.12
2019-01-17T16:44:05.582Z,88.72
2019-01-17T16:46:35.522Z,89.30
2019-01-17T16:49:07.247Z,89.69
2019-01-17T16:51:35.489Z,89.89
2019-01-17T16:54:04.129Z,90.17
2019-01-17T16:56:33.226Z,90.24
2019-01-17T16:59:04.191Z,90.31
2019-01-17T17:01:32.928Z,90.44
2019-01-17T17:04:03.744Z,90.57
2019-01-17T17:06:32.118Z,90.59
2019-01-17T17:09:00.260Z,90.52
2019-01-17T17:11:29.164Z,90.46
2019-01-17T17:13:58.959Z,90.34
2019-01-17T17:16:27.476Z,90.09
2019-01-17T17:18:56.816Z,89.85
2019-01-17T17:21:25.213Z,89.68
2019-01-17T17:23:55.837Z,89.41
2019-01-17T17:26:25.015Z,89.35
2019-01-17T17:28:53.582Z,89.24
2019-01-17T17:31:23.791Z,89.14
2019-01-17T17:33:52.234Z,89.02
2019-01-17T17:36:23.801Z,88.92
2019-01-17T17:38:52.635Z,88.86
2019-01-17T17:41:21.651Z,88.80
2019-01-17T17:43:50.119Z,88.69
2019-01-17T17:46:18.795Z,88.72
2019-01-17T17:48:46.929Z,88.63
2019-01-17T17:51:15.191Z,88.42
2019-01-17T17:53:43.780Z,88.48
2019-01-17T17:56:13.904Z,88.45
2019-01-17T17:58:42.582Z,88.31
2019-01-17T18:01:30.118Z,88.17
2019-01-17T18:04:01.479Z,88.05
2019-01-17T18:06:31.596Z,87.95
2019-01-17T18:09:01.096Z,87.83
2019-01-17T18:11:31.617Z,87.68
2019-01-17T18:14:01.004Z,87.59
2019-01-17T18:16:29.268Z,87.61
2019-01-17T18:19:00.736Z,87.57
2019-01-17T18:21:30.343Z,87.46
2019-01-17T18:23:58.812Z,87.39
2019-01-17T18:26:27.566Z,87.39
2019-01-17T18:28:56.687Z,87.40
2019-01-17T18:31:26.417Z,87.43
2019-01-17T18:33:55.585Z,87.47
2019-01-17T18:36:25.236Z,87.49
2019-01-17T18:38:57.347Z,87.49
2019-01-17T18:41:27.131Z,87.39
2019-01-17T18:43:55.648Z,87.40
2019-01-17T18:46:25.882Z,87.68
2019-01-17T18:48:54.664Z,87.71
2019-01-17T18:51:22.666Z,88.04
2019-01-17T18:53:53.810Z,88.15
2019-01-17T18:56:23.419Z,88.21
2019-01-17T18:58:56.168Z,88.27
2019-01-17T19:01:25.915Z,88.18
2019-01-17T19:03:55.499Z,88.12
2019-01-17T19:06:24.671Z,88.06
2019-01-17T19:08:53.823Z,87.73
2019-01-17T19:11:22.083Z,87.36
2019-01-17T19:13:50.450Z,86.87
2019-01-17T19:16:18.807Z,86.24
2019-01-17T19:18:47.356Z,85.68
2019-01-17T19:21:18.014Z,85.24
2019-01-17T19:23:46.409Z,84.69
2019-01-17T19:26:15.480Z,84.25
2019-01-17T19:28:44.323Z,84.06
2019-01-17T19:31:16.007Z,83.93
2019-01-17T19:33:44.794Z,83.73
2019-01-17T19:36:16.941Z,83.47
2019-01-17T19:38:45.370Z,83.50
2019-01-17T19:41:19.111Z,83.47
2019-01-17T19:43:48.019Z,83.39
2019-01-17T19:46:17.680Z,83.17
2019-01-17T19:48:46.230Z,82.87
2019-01-17T19:51:15.570Z,82.68
2019-01-17T19:53:45.024Z,82.27
2019-01-17T19:56:13.861Z,82.10
2019-01-17T19:58:42.408Z,82.04
2019-01-17T20:01:15.589Z,82.23
2019-01-17T20:03:43.820Z,82.32
2019-01-17T20:06:12.582Z,82.31
2019-01-17T20:08:40.961Z,82.60
2019-01-17T20:11:10.203Z,82.44
2019-01-17T20:13:38.320Z,82.39
2019-01-17T20:16:07.858Z,82.23
2019-01-17T20:18:37.573Z,81.90
2019-01-17T20:21:06.807Z,81.16
2019-01-17T20:23:35.142Z,81.12
2019-01-17T20:26:05.591Z,81.37
2019-01-17T20:28:35.797Z,80.65
2019-01-17T20:31:07.192Z,81.02
2019-01-17T20:33:36.989Z,82.12
2019-01-17T20:36:11.166Z,82.55
2019-01-17T20:38:40.034Z,83.15
2019-01-17T20:41:09.297Z,83.86
2019-01-17T20:43:39.677Z,84.48
2019-01-17T20:46:07.767Z,84.97
2019-01-17T20:48:40.091Z,85.19
2019-01-17T20:51:10.001Z,85.56
2019-01-17T20:53:38.157Z,85.42
2019-01-17T20:56:06.769Z,85.53
2019-01-17T20:58:42.150Z,85.56
2019-01-17T21:01:24.455Z,85.62
2019-01-17T21:03:57.613Z,85.84
2019-01-17T21:06:30.800Z,86.04
2019-01-17T21:08:58.949Z,86.01
2019-01-17T21:11:27.149Z,86.05
2019-01-17T21:13:59.625Z,85.97
2019-01-17T21:16:28.734Z,86.03
2019-01-17T21:18:57.016Z,85.77
2019-01-17T21:21:27.151Z,85.49
2019-01-17T21:23:58.090Z,85.14
2019-01-17T21:26:26.235Z,84.81
2019-01-17T21:28:54.494Z,84.47
2019-01-17T21:31:23.460Z,84.28
2019-01-17T21:33:51.900Z,84.01
2019-01-17T21:36:30.157Z,84.06
2019-01-17T21:38:58.981Z,84.08
2019-01-17T21:41:31.294Z,84.44
2019-01-17T21:44:02.795Z,84.61
2019-01-17T21:46:37.372Z,84.76
2019-01-17T21:49:05.507Z,84.95
2019-01-17T21:51:34.059Z,84.98
2019-01-17T21:54:02.678Z,85.09
2019-01-17T21:56:30.741Z,85.09
2019-01-17T21:59:01.834Z,84.90
2019-01-17T22:01:32.396Z,84.66
2019-01-17T22:04:02.802Z,84.35
2019-01-17T22:06:36.465Z,84.30
2019-01-17T22:09:08.092Z,84.07
2019-01-17T22:11:38.130Z,83.70
2019-01-17T22:14:06.896Z,83.45
2019-01-17T22:16:35.837Z,83.38
2019-01-17T22:19:06.064Z,83.14
2019-01-17T22:21:35.264Z,82.91
2019-01-17T22:24:04.325Z,82.88
2019-01-17T22:26:32.575Z,82.69
2019-01-17T22:29:02.663Z,82.57
2019-01-17T22:31:31.253Z,82.64
2019-01-17T22:34:03.527Z,82.40
2019-01-17T22:36:34.414Z,82.35
2019-01-17T22:39:08.683Z,82.72
2019-01-17T22:41:37.849Z,82.42
2019-01-17T22:44:06.926Z,82.90
2019-01-17T22:46:35.647Z,82.84
2019-01-17T22:49:07.927Z,81.99
2019-01-17T22:51:40.699Z,81.16
2019-01-17T22:54:26.603Z,80.54
2019-01-17T22:56:57.172Z,80.45
2019-01-17T22:59:26.751Z,80.23
2019-01-17T23:01:56.706Z,79.95
2019-01-17T23:04:25.957Z,79.90
2019-01-17T23:06:56.309Z,79.29
2019-01-17T23:09:26.672Z,79.28
2019-01-17T23:11:56.137Z,79.13
2019-01-17T23:14:25.002Z,79.18
2019-01-17T23:16:58.421Z,79.65
2019-01-17T23:19:29.828Z,79.78
2019-01-17T23:21:58.198Z,79.68
2019-01-17T23:24:29.621Z,79.31
2019-01-17T23:26:59.171Z,78.84
2019-01-17T23:29:29.578Z,78.53
2019-01-17T23:31:58.915Z,78.87
2019-01-17T23:34:30.276Z,78.97
2019-01-17T23:37:01.156Z,78.41
2019-01-17T23:39:29.515Z,77.83
2019-01-17T23:41:58.382Z,77.56
2019-01-17T23:44:30.033Z,77.95
2019-01-17T23:46:58.256Z,77.97
2019-01-17T23:49:27.717Z,78.07
2019-01-17T23:51:56.316Z,78.07
2019-01-17T23:54:24.392Z,78.16
2019-01-17T23:56:52.619Z,78.17
2019-01-17T23:59:22.784Z,78.93
